Logan, Utah
Current Conditions -  °F | °C
As of 11:51 AM on Friday 28 Nov 2014 (Local Time) from KLGU Reporting Station
Clear Clear  
Wind Chill: 52°   Ceiling: Unl
Heat Index: 52°   Visibility: 10mi
Dew Point: 30°   Wind: 10mph
Humidity: 43%   Direction: 360°N
Pressure: 29.93"   Gusts: NA
Location:  41.74°N, 111.83°W
Report Text: KLGU 281851Z AUTO 36009KT 10SM CLR 11/M01 A2993 RMK AO2 SLP127 T01111011
Loading
Personal Weather Stations






























Interactive Weather Map New forecast layout! Learn more

10-Day Weather Forecast

Advertisements
Track Severe Weather on mobile